Time;durP1;ratioP1;P1;durP2;ratioP2;P2;SDS_P1;SDS_P2;PMS_P1;PMS_P2;Temp;Humidity;BMP_temperature;BMP_pressure;BME280_temperature;BME280_humidity;BME280_pressure;Samples;Min_cycle;Max_cycle;Signal;HPM_P1;HPM_P2
2023/08/23 00:01:51;;;;;;;1.38;0.13;;;15.10;99.90;;;;;;5035066;28;20040;-73
2023/08/23 00:04:19;;;;;;;0.82;0.00;;;15.20;99.90;;;;;;5034994;28;20033;-73
2023/08/23 00:06:44;;;;;;;1.07;0.20;;;15.10;99.90;;;;;;5033598;28;20025;-73
2023/08/23 00:09:10;;;;;;;0.52;0.00;;;15.10;99.90;;;;;;5034916;28;20075;-73
2023/08/23 00:11:36;;;;;;;1.13;0.00;;;15.10;99.90;;;;;;5034922;28;20485;-73
2023/08/23 00:14:02;;;;;;;0.52;0.00;;;15.10;99.90;;;;;;5034935;28;20022;-73
2023/08/23 00:16:28;;;;;;;1.30;0.00;;;15.00;99.90;;;;;;5034658;28;20080;-73
2023/08/23 00:18:53;;;;;;;0.55;0.00;;;15.00;99.90;;;;;;5034722;28;20029;-73
2023/08/23 00:21:19;;;;;;;1.88;0.15;;;15.00;99.90;;;;;;5034657;28;20104;-73
2023/08/23 00:23:44;;;;;;;0.30;0.08;;;15.00;99.90;;;;;;5035165;28;20030;-73
2023/08/23 00:26:13;;;;;;;0.50;0.00;;;14.90;99.90;;;;;;5034476;28;20048;-73
2023/08/23 00:28:39;;;;;;;0.20;0.00;;;14.90;99.90;;;;;;5035056;28;20052;-73
2023/08/23 00:31:05;;;;;;;0.30;0.00;;;14.80;99.90;;;;;;5034563;28;20017;-73
2023/08/23 00:33:30;;;;;;;0.20;0.00;;;14.80;99.90;;;;;;5033233;28;20071;-73
2023/08/23 00:35:56;;;;;;;0.68;0.00;;;14.80;99.90;;;;;;5034377;28;20021;-73
2023/08/23 00:38:24;;;;;;;1.35;0.28;;;14.70;99.90;;;;;;5034907;28;20460;-73
2023/08/23 00:40:50;;;;;;;6.85;0.10;;;14.70;99.90;;;;;;5033100;28;20060;-73
2023/08/23 00:43:15;;;;;;;4.97;0.40;;;14.70;99.90;;;;;;5034322;28;20061;-73
2023/08/23 00:45:42;;;;;;;0.80;0.00;;;14.80;99.90;;;;;;5032878;28;20026;-73
2023/08/23 00:48:09;;;;;;;1.15;0.10;;;14.80;99.90;;;;;;5034207;28;20057;-73
2023/08/23 00:50:36;;;;;;;1.13;0.20;;;14.80;99.90;;;;;;5034154;28;20021;-73
2023/08/23 00:53:02;;;;;;;2.40;0.10;;;14.80;99.90;;;;;;5034172;28;20060;-73
2023/08/23 00:55:28;;;;;;;1.42;0.00;;;14.80;99.90;;;;;;5034148;28;20026;-73
2023/08/23 00:57:55;;;;;;;0.82;0.10;;;14.80;99.90;;;;;;5034664;28;20167;-73
2023/08/23 01:00:21;;;;;;;1.48;0.28;;;14.70;99.90;;;;;;5032833;28;20022;-73
2023/08/23 01:02:46;;;;;;;0.75;0.08;;;14.70;99.90;;;;;;5034725;28;20042;-73
2023/08/23 01:05:13;;;;;;;0.55;0.10;;;14.70;99.90;;;;;;5032757;28;20021;-73
2023/08/23 01:08:01;;;;;;;0.98;0.20;;;14.70;99.90;;;;;;5033807;28;20069;-73
2023/08/23 01:10:41;;;;;;;1.80;0.22;;;14.60;99.90;;;;;;5033940;28;20432;-73
2023/08/23 01:13:32;;;;;;;0.88;0.10;;;14.70;99.90;;;;;;5032090;28;20382;-73
2023/08/23 01:15:58;;;;;;;1.65;0.50;;;14.60;99.90;;;;;;5034752;28;20044;-73
2023/08/23 01:18:25;;;;;;;3.22;0.38;;;14.60;99.90;;;;;;5033795;28;20029;-73
2023/08/23 01:20:53;;;;;;;1.17;0.10;;;14.60;99.90;;;;;;5032578;28;20025;-73
2023/08/23 01:23:19;;;;;;;2.70;0.15;;;14.60;99.90;;;;;;5033834;28;20095;-73
2023/08/23 01:25:48;;;;;;;0.57;0.15;;;14.60;99.90;;;;;;5033582;28;20025;-73
2023/08/23 01:28:14;;;;;;;1.35;0.38;;;14.60;99.90;;;;;;5032457;28;20029;-73
2023/08/23 01:30:40;;;;;;;0.63;0.17;;;14.60;99.90;;;;;;5034093;28;20095;-73
2023/08/23 01:33:17;;;;;;;0.55;0.20;;;14.50;99.90;;;;;;5033591;28;20079;-73
2023/08/23 01:36:01;;;;;;;0.55;0.00;;;14.50;99.90;;;;;;5033644;28;20112;-73
2023/08/23 01:38:29;;;;;;;0.80;0.28;;;14.50;99.90;;;;;;5033696;28;20485;-73
2023/08/23 01:40:55;;;;;;;1.35;0.20;;;14.50;99.90;;;;;;5033593;28;20381;-73
2023/08/23 01:43:24;;;;;;;1.55;0.10;;;;;;;;;;5033360;28;20025;-73
2023/08/23 01:45:50;;;;;;;0.35;0.10;;;14.40;99.90;;;;;;5032189;28;20038;-73
2023/08/23 01:48:15;;;;;;;2.50;0.22;;;15.50;99.90;;;;;;5033968;28;20032;-73
2023/08/23 01:50:41;;;;;;;0.47;0.00;;;14.40;99.90;;;;;;5033795;28;20021;-73
2023/08/23 01:53:07;;;;;;;1.65;0.10;;;14.40;99.90;;;;;;5032152;28;20060;-73
2023/08/23 01:55:32;;;;;;;0.63;0.20;;;14.40;99.90;;;;;;5033808;28;20021;-73
2023/08/23 01:57:58;;;;;;;0.28;0.10;;;14.40;99.90;;;;;;5033216;28;20460;-73
2023/08/23 02:00:24;;;;;;;0.63;0.10;;;14.40;99.90;;;;;;5033761;28;20029;-73
2023/08/23 02:02:50;;;;;;;1.38;0.10;;;14.30;99.90;;;;;;5033123;28;20432;-73
2023/08/23 02:05:15;;;;;;;0.45;0.00;;;14.30;99.90;;;;;;5033132;28;20071;-73
2023/08/23 02:07:41;;;;;;;1.50;0.10;;;14.30;99.90;;;;;;5033000;28;20124;-73
2023/08/23 02:10:07;;;;;;;1.25;0.20;;;14.30;99.90;;;;;;5033203;28;20074;-73
2023/08/23 02:12:32;;;;;;;6.47;0.32;;;14.30;99.90;;;;;;5033722;28;20112;-73
2023/08/23 02:14:58;;;;;;;2.90;0.00;;;14.30;99.90;;;;;;5033067;28;20128;-73
2023/08/23 02:17:24;;;;;;;1.15;0.20;;;14.30;99.90;;;;;;5033111;28;20021;-73
2023/08/23 02:19:49;;;;;;;3.05;0.40;;;14.30;99.90;;;;;;5033125;28;20108;-73
2023/08/23 02:22:15;;;;;;;5.38;0.57;;;14.30;99.90;;;;;;5033152;28;20126;-73
2023/08/23 02:24:40;;;;;;;3.08;0.30;;;14.30;99.90;;;;;;5032938;28;20021;-73
2023/08/23 02:27:06;;;;;;;2.10;0.60;;;14.30;99.90;;;;;;5036947;28;20021;-73
2023/08/23 02:29:31;;;;;;;1.65;0.43;;;14.40;99.90;;;;;;5036687;28;20030;-73
2023/08/23 02:31:57;;;;;;;1.50;0.60;;;14.40;99.90;;;;;;5037514;28;20446;-73
2023/08/23 02:34:23;;;;;;;4.47;0.82;;;14.40;99.90;;;;;;5036771;28;20053;-73
2023/08/23 02:36:48;;;;;;;0.63;0.47;;;14.40;99.90;;;;;;5036974;28;20021;-73
2023/08/23 02:39:14;;;;;;;3.10;0.57;;;14.40;99.90;;;;;;5035399;28;20032;-73
2023/08/23 02:41:40;;;;;;;2.33;0.75;;;14.40;99.90;;;;;;5036789;28;20021;-73
2023/08/23 02:44:05;;;;;;;3.28;1.55;;;14.40;99.90;;;;;;5035408;28;20048;-73
2023/08/23 02:46:31;;;;;;;2.20;1.17;;;14.50;99.90;;;;;;5036644;28;20090;-73
2023/08/23 02:48:56;;;;;;;3.10;1.42;;;14.50;99.90;;;;;;5037105;28;20036;-73
2023/08/23 02:51:22;;;;;;;2.65;1.50;;;14.50;99.90;;;;;;5036686;28;20033;-73
2023/08/23 02:53:50;;;;;;;2.47;0.85;;;14.50;99.90;;;;;;5035222;28;20032;-73
2023/08/23 02:56:16;;;;;;;6.35;2.08;;;14.50;99.90;;;;;;5036464;28;20014;-73
2023/08/23 02:58:41;;;;;;;6.00;1.73;;;14.60;99.90;;;;;;5036367;28;20048;-73
2023/08/23 03:01:07;;;;;;;6.47;1.67;;;14.50;99.90;;;;;;5037089;28;20033;-73
2023/08/23 03:03:32;;;;;;;5.85;1.70;;;14.60;99.90;;;;;;5036315;28;20029;-73
2023/08/23 03:05:58;;;;;;;1.63;0.98;;;14.60;99.90;;;;;;5036267;28;20027;-73
2023/08/23 03:08:25;;;;;;;4.20;1.73;;;14.60;99.90;;;;;;5034806;28;20485;-73
2023/08/23 03:10:50;;;;;;;9.30;3.45;;;14.60;99.90;;;;;;5036083;28;20026;-73
2023/08/23 03:13:16;;;;;;;6.82;1.85;;;14.50;99.90;;;;;;5036164;28;20038;-73
2023/08/23 03:15:42;;;;;;;7.63;1.65;;;14.60;99.90;;;;;;5036039;28;20401;-73
2023/08/23 03:18:08;;;;;;;5.25;1.92;;;14.60;99.90;;;;;;5036660;28;20025;-73
2023/08/23 03:20:33;;;;;;;4.18;1.95;;;14.60;99.90;;;;;;5034604;28;20507;-73
2023/08/23 03:22:59;;;;;;;7.63;2.33;;;14.60;99.90;;;;;;5034717;28;20492;-73
2023/08/23 03:25:25;;;;;;;7.47;2.75;;;14.60;99.90;;;;;;5035894;28;20029;-73
2023/08/23 03:27:54;;;;;;;5.22;2.13;;;14.60;99.90;;;;;;5035921;28;20104;-73
2023/08/23 03:30:19;;;;;;;;;;;14.70;99.90;;;;;;5036303;28;20100;-73
2023/08/23 03:32:48;;;;;;;7.65;2.92;;;14.70;99.90;;;;;;5035892;28;19943;-73
2023/08/23 03:35:14;;;;;;;4.43;2.13;;;14.70;99.90;;;;;;5034469;28;20028;-73
2023/08/23 03:37:39;;;;;;;3.75;1.90;;;14.70;99.90;;;;;;5035266;28;20493;-73
2023/08/23 03:40:05;;;;;;;5.28;2.47;;;14.70;99.90;;;;;;5034351;28;20486;-73
2023/08/23 03:42:31;;;;;;;5.53;2.97;;;14.70;99.90;;;;;;5036143;28;20381;-73
2023/08/23 03:44:56;;;;;;;5.72;3.00;;;14.70;99.90;;;;;;5035598;28;20104;-73
2023/08/23 03:47:22;;;;;;;8.60;2.38;;;14.70;99.90;;;;;;5036060;28;20025;-73
2023/08/23 03:49:48;;;;;;;5.20;2.28;;;14.70;99.90;;;;;;5035843;28;20108;-73
2023/08/23 03:52:14;;;;;;;7.07;2.67;;;14.70;99.90;;;;;;5034089;28;20017;-73
2023/08/23 03:54:40;;;;;;;5.80;2.00;;;14.70;99.90;;;;;;5035346;28;20117;-73
2023/08/23 03:57:05;;;;;;;6.15;2.95;;;14.70;99.90;;;;;;5035270;28;20033;-73
2023/08/23 03:59:31;;;;;;;5.53;2.38;;;14.70;99.90;;;;;;5035738;28;20025;-73
2023/08/23 04:01:56;;;;;;;5.22;2.78;;;14.70;99.90;;;;;;5035806;28;20076;-73
2023/08/23 04:04:22;;;;;;;5.13;2.83;;;14.60;99.90;;;;;;5035113;28;20096;-73
2023/08/23 04:06:47;;;;;;;10.75;2.72;;;14.60;99.90;;;;;;5035079;28;20099;-73
2023/08/23 04:09:13;;;;;;;8.80;2.95;;;14.50;99.90;;;;;;5035674;28;20444;-73
2023/08/23 04:11:39;;;;;;;4.18;2.38;;;14.50;99.90;;;;;;5035085;28;20029;-73
2023/08/23 04:14:04;;;;;;;4.93;2.88;;;14.50;99.90;;;;;;5035027;28;20014;-73
2023/08/23 04:16:30;;;;;;;5.18;2.72;;;14.50;99.90;;;;;;5034937;28;20155;-73
2023/08/23 04:18:56;;;;;;;6.00;2.50;;;14.50;99.90;;;;;;5035061;28;20100;-73
2023/08/23 04:21:21;;;;;;;10.85;3.13;;;14.40;99.90;;;;;;5035145;28;20052;-74
2023/08/23 04:23:47;;;;;;;8.35;3.33;;;14.40;99.90;;;;;;5034937;28;20033;-73
2023/08/23 04:26:13;;;;;;;7.60;2.38;;;14.40;99.90;;;;;;5034677;28;20037;-73
2023/08/23 04:28:39;;;;;;;7.03;2.47;;;14.40;99.90;;;;;;5034635;28;20112;-74
2023/08/23 04:31:04;;;;;;;12.10;2.90;;;14.40;99.90;;;;;;5034708;28;20056;-74
2023/08/23 04:33:30;;;;;;;6.47;3.03;;;14.40;99.90;;;;;;5034702;28;20013;-74
2023/08/23 04:35:56;;;;;;;7.43;2.92;;;14.40;99.90;;;;;;5034551;28;20025;-73
2023/08/23 04:38:21;;;;;;;5.22;2.33;;;14.40;99.90;;;;;;5035065;28;20358;-73
2023/08/23 04:40:47;;;;;;;10.02;2.75;;;14.30;99.90;;;;;;5034436;28;20025;-73
2023/08/23 04:43:12;;;;;;;8.57;2.83;;;14.40;99.90;;;;;;5034410;28;20088;-73
2023/08/23 04:45:39;;;;;;;5.35;1.90;;;14.40;99.90;;;;;;5033358;28;20025;-74
2023/08/23 04:48:05;;;;;;;4.15;2.30;;;14.40;99.90;;;;;;5033489;28;20033;-73
2023/08/23 04:50:30;;;;;;;6.57;2.50;;;14.40;99.90;;;;;;5034815;28;20477;-74
2023/08/23 04:52:56;;;;;;;5.45;2.85;;;14.30;99.90;;;;;;5032904;28;20071;-74
2023/08/23 04:55:22;;;;;;;4.57;2.50;;;14.30;99.90;;;;;;5032891;28;20385;-74
2023/08/23 04:57:47;;;;;;;8.82;2.83;;;14.30;99.90;;;;;;5034132;28;20021;-74
2023/08/23 05:00:13;;;;;;;8.40;3.20;;;14.30;99.90;;;;;;5034177;28;20029;-74
2023/08/23 05:02:39;;;;;;;7.45;2.92;;;14.40;99.90;;;;;;5034072;28;20026;-74
2023/08/23 05:05:06;;;;;;;7.40;3.90;;;14.50;99.90;;;;;;5034011;28;20424;-74
2023/08/23 05:07:34;;;;;;;11.07;4.65;;;14.50;99.90;;;;;;5032781;28;20037;-74
2023/08/23 05:10:01;;;;;;;;;;;14.50;99.90;;;;;;5032835;28;20025;-74
2023/08/23 05:12:26;;;;;;;10.32;3.88;;;14.60;99.90;;;;;;5033841;28;20365;-74
2023/08/23 05:14:52;;;;;;;11.65;4.20;;;14.70;99.90;;;;;;5034034;28;20025;-74
2023/08/23 05:17:18;;;;;;;10.73;5.45;;;14.80;99.90;;;;;;5032492;28;20029;-72
2023/08/23 05:19:44;;;;;;;12.38;4.25;;;14.90;99.90;;;;;;5033671;28;20029;-72
2023/08/23 05:22:10;;;;;;;9.43;3.75;;;15.00;99.90;;;;;;5033778;28;20431;-72
2023/08/23 05:24:35;;;;;;;9.80;3.90;;;15.20;99.90;;;;;;5033626;28;20026;-72
2023/08/23 05:27:01;;;;;;;11.02;4.68;;;15.40;99.90;;;;;;5033719;28;20388;-72
2023/08/23 05:29:27;;;;;;;9.45;4.32;;;15.50;99.90;;;;;;5033737;28;20100;-72
2023/08/23 05:31:52;;;;;;;8.55;4.45;;;15.70;99.90;;;;;;5032781;28;20021;-72
2023/08/23 05:34:18;;;;;;;7.95;4.13;;;15.90;99.90;;;;;;5033659;28;20017;-72
2023/08/23 05:36:43;;;;;;;5.68;3.22;;;16.00;99.90;;;;;;5033368;28;20064;-72
2023/08/23 05:39:09;;;;;;;7.68;3.53;;;16.00;99.90;;;;;;5033616;28;20136;-72
2023/08/23 05:41:35;;;;;;;8.35;3.80;;;16.20;99.90;;;;;;5033466;28;20033;-72
2023/08/23 05:44:01;;;;;;;9.63;3.78;;;16.30;99.90;;;;;;5033687;28;20037;-72
2023/08/23 05:46:26;;;;;;;6.97;3.88;;;16.30;99.90;;;;;;5033843;28;20068;-72
2023/08/23 05:48:52;;;;;;;9.82;4.70;;;16.50;99.90;;;;;;5033822;28;20025;-72
2023/08/23 05:51:17;;;;;;;11.80;4.35;;;16.60;99.90;;;;;;5033358;28;20029;-73
2023/08/23 05:53:43;;;;;;;7.93;3.33;;;16.70;99.90;;;;;;5033356;28;20027;-73
2023/08/23 05:56:08;;;;;;;5.22;3.33;;;16.80;99.90;;;;;;5032129;28;20025;-73
2023/08/23 05:58:34;;;;;;;8.52;4.07;;;17.00;99.90;;;;;;5033870;28;20033;-73
2023/08/23 06:00:59;;;;;;;7.85;3.30;;;17.10;99.90;;;;;;5033647;28;20029;-72
2023/08/23 06:03:25;;;;;;;9.23;3.20;;;17.20;99.90;;;;;;5033830;28;20025;-73
2023/08/23 06:05:57;;;;;;;5.65;3.08;;;17.30;99.90;;;;;;5033208;28;20014;-72
2023/08/23 06:08:26;;;;;;;8.07;3.50;;;17.40;99.90;;;;;;5033250;28;20029;-73
2023/08/23 06:10:52;;;;;;;8.63;3.05;;;17.40;99.90;;;;;;5033271;28;20028;-73
2023/08/23 06:13:18;;;;;;;9.75;3.33;;;17.50;99.90;;;;;;5033210;28;20392;-73
2023/08/23 06:15:43;;;;;;;7.30;2.20;;;17.70;99.90;;;;;;5033238;28;20022;-73
2023/08/23 06:18:09;;;;;;;4.78;2.28;;;17.70;99.90;;;;;;5033604;28;20032;-73
2023/08/23 06:20:34;;;;;;;5.68;2.60;;;17.90;99.90;;;;;;5033286;28;20030;-72
2023/08/23 06:23:00;;;;;;;6.40;2.05;;;18.00;99.90;;;;;;5033043;28;20029;-72
2023/08/23 06:25:26;;;;;;;8.07;2.55;;;18.10;99.90;;;;;;5032981;28;20021;-73
2023/08/23 06:27:51;;;;;;;7.35;2.92;;;18.30;99.90;;;;;;5032944;28;20057;-73
2023/08/23 06:30:17;;;;;;;8.38;2.42;;;18.30;99.90;;;;;;5033532;28;20053;-73
2023/08/23 06:32:46;;;;;;;10.07;2.80;;;18.40;99.90;;;;;;5033474;28;20048;-73
2023/08/23 06:35:13;;;;;;;5.93;2.55;;;18.40;99.90;;;;;;5032936;28;20075;-73
2023/08/23 06:37:39;;;;;;;8.05;2.65;;;18.40;99.90;;;;;;5031537;28;20089;-73
2023/08/23 06:40:05;;;;;;;10.73;2.88;;;18.50;99.90;;;;;;5032719;28;20108;-73
2023/08/23 06:42:31;;;;;;;5.57;2.40;;;18.60;99.90;;;;;;5031765;28;20555;-73
2023/08/23 06:44:56;;;;;;;6.13;2.65;;;18.70;99.90;;;;;;5032687;28;20018;-73
2023/08/23 06:47:22;;;;;;;6.43;2.80;;;18.80;99.90;;;;;;5031574;28;20028;-73
2023/08/23 06:49:47;;;;;;;5.82;2.85;;;18.90;99.90;;;;;;5032543;28;20069;-73
2023/08/23 06:52:13;;;;;;;6.07;2.63;;;19.00;99.90;;;;;;5031518;28;20539;-73
2023/08/23 06:54:38;;;;;;;5.88;2.85;;;19.10;99.90;;;;;;5032834;28;20064;-73
2023/08/23 06:57:04;;;;;;;9.30;2.95;;;19.20;99.90;;;;;;5032827;28;20025;-74
2023/08/23 06:59:29;;;;;;;5.63;2.50;;;19.30;99.90;;;;;;5031593;28;20026;-74
2023/08/23 07:01:55;;;;;;;7.15;2.85;;;19.40;99.90;;;;;;5033266;28;20109;-73
2023/08/23 07:04:20;;;;;;;7.03;2.15;;;19.50;99.90;;;;;;5033249;28;20021;-73
2023/08/23 07:06:46;;;;;;;3.85;1.75;;;19.60;99.90;;;;;;5032703;28;20041;-73
2023/08/23 07:09:12;;;;;;;7.90;2.75;;;19.70;99.90;;;;;;5033068;28;20033;-73
2023/08/23 07:11:38;;;;;;;8.02;3.25;;;19.80;99.90;;;;;;5034308;28;20579;-73
2023/08/23 07:14:04;;;;;;;6.18;2.22;;;19.90;99.90;;;;;;5036154;28;20022;-73
2023/08/23 07:16:29;;;;;;;6.30;2.35;;;20.00;99.90;;;;;;5036138;28;20052;-73
2023/08/23 07:18:55;;;;;;;8.38;3.30;;;20.10;99.90;;;;;;5035859;28;20087;-72
2023/08/23 07:21:20;;;;;;;5.20;1.67;;;20.20;99.90;;;;;;5034625;28;20524;-73
2023/08/23 07:23:46;;;;;;;3.42;2.13;;;20.30;99.90;;;;;;5034417;28;20026;-72
2023/08/23 07:26:11;;;;;;;6.55;2.33;;;20.40;99.90;;;;;;5034874;28;20428;-73
2023/08/23 07:28:37;;;;;;;4.78;1.45;;;20.50;99.90;;;;;;5036145;28;20429;-72
2023/08/23 07:31:03;;;;;;;7.75;2.90;;;20.70;99.90;;;;;;5033585;28;20021;-73
2023/08/23 07:33:29;;;;;;;5.40;1.52;;;20.80;99.90;;;;;;5035746;28;20033;-73
2023/08/23 07:35:59;;;;;;;9.02;3.15;;;20.80;99.90;;;;;;5034728;28;20025;-70
2023/08/23 07:38:25;;;;;;;5.80;2.13;;;21.00;99.90;;;;;;5035650;28;20064;-71
2023/08/23 07:40:59;;;;;;;7.22;1.67;;;21.10;99.90;;;;;;5034418;28;20026;-70
2023/08/23 07:43:25;;;;;;;6.90;1.73;;;21.10;99.90;;;;;;5036278;28;20021;-70
2023/08/23 07:45:54;;;;;;;9.02;0.90;;;21.10;99.90;;;;;;5035450;28;20017;-70
2023/08/23 07:48:20;;;;;;;2.40;0.85;;;21.10;99.90;;;;;;5035923;28;20115;-70
2023/08/23 07:50:48;;;;;;;6.85;1.35;;;21.20;99.90;;;;;;5035561;28;20080;-70
2023/08/23 07:53:14;;;;;;;3.90;1.08;;;21.30;99.90;;;;;;5035964;28;20021;-70
2023/08/23 07:55:39;;;;;;;5.60;0.75;;;21.50;99.90;;;;;;5035264;28;20025;-70
2023/08/23 07:58:05;;;;;;;1.77;1.00;;;21.50;99.90;;;;;;5034051;28;20022;-71
2023/08/23 08:00:31;;;;;;;5.50;1.52;;;21.50;99.90;;;;;;5035306;28;20029;-70
2023/08/23 08:02:57;;;;;;;2.22;1.15;;;21.60;99.90;;;;;;5035234;28;20029;-70
2023/08/23 08:05:23;;;;;;;4.80;1.40;;;21.60;99.90;;;;;;5035668;28;20036;-71
2023/08/23 08:07:48;;;;;;;7.00;1.65;;;21.70;99.90;;;;;;5033713;28;20034;-70
2023/08/23 08:10:14;;;;;;;8.13;1.02;;;21.70;99.90;;;;;;5035223;28;20024;-70
2023/08/23 08:12:39;;;;;;;6.00;0.95;;;21.80;99.90;;;;;;5035658;28;20021;-70
2023/08/23 08:15:06;;;;;;;3.75;0.77;;;21.80;99.90;;;;;;5034941;28;20029;-70
2023/08/23 08:17:33;;;;;;;6.28;1.42;;;21.80;99.90;;;;;;5034957;28;20012;-70
2023/08/23 08:20:04;;;;;;;4.47;1.40;;;21.90;99.90;;;;;;5035014;28;20060;-70
2023/08/23 08:22:30;;;;;;;3.72;1.38;;;21.90;99.90;;;;;;5034684;28;20439;-70
2023/08/23 08:24:55;;;;;;;8.88;1.30;;;22.10;99.90;;;;;;5033168;28;20029;-70
2023/08/23 08:27:21;;;;;;;1.95;0.60;;;22.20;99.90;;;;;;5034692;28;20040;-70
2023/08/23 08:29:46;;;;;;;4.13;1.27;;;22.30;99.90;;;;;;5034565;28;20022;-70
2023/08/23 08:32:14;;;;;;;6.88;1.33;;;22.50;99.90;;;;;;5034671;28;20017;-70
2023/08/23 08:34:40;;;;;;;13.63;2.35;;;22.60;99.90;;;;;;5034505;28;20018;-70
2023/08/23 08:37:06;;;;;;;6.90;1.27;;;22.50;99.90;;;;;;5034551;28;20561;-70
2023/08/23 08:39:32;;;;;;;4.70;1.55;;;22.50;99.90;;;;;;5034483;28;20049;-70
2023/08/23 08:41:59;;;;;;;6.50;1.08;;;22.40;99.90;;;;;;5033212;28;20041;-70
2023/08/23 08:44:25;;;;;;;8.10;1.85;;;22.40;99.90;;;;;;5034455;28;20040;-70
2023/08/23 08:46:51;;;;;;;4.15;0.82;;;22.50;99.90;;;;;;5034554;28;20029;-70
2023/08/23 08:49:17;;;;;;;5.18;1.65;;;22.60;99.90;;;;;;5033206;28;20021;-70
2023/08/23 08:51:47;;;;;;;6.97;1.27;;;22.70;99.90;;;;;;5034362;28;20032;-70
2023/08/23 08:54:18;;;;;;;2.13;0.55;;;22.70;99.90;;;;;;5034373;28;20025;-70
2023/08/23 08:56:46;;;;;;;3.20;0.65;;;22.70;99.90;;;;;;5034273;28;20036;-70
2023/08/23 08:59:14;;;;;;;5.60;1.90;;;22.80;99.90;;;;;;5034286;28;20607;-70
2023/08/23 09:01:43;;;;;;;6.78;1.40;;;23.00;99.90;;;;;;5032946;28;20512;-70
2023/08/23 09:04:09;;;;;;;1.70;0.80;;;23.10;99.90;;;;;;5032898;28;20026;-70
2023/08/23 09:06:40;;;;;;;6.70;1.20;;;23.20;99.90;;;;;;5032693;28;20052;-70
2023/08/23 09:09:06;;;;;;;0.77;0.40;;;23.20;99.90;;;;;;5033912;28;20032;-70
2023/08/23 09:11:32;;;;;;;2.85;1.05;;;23.20;99.90;;;;;;5032611;28;20025;-70
2023/08/23 09:13:58;;;;;;;4.05;1.55;;;23.20;99.90;;;;;;5033871;28;20022;-70
2023/08/23 09:16:27;;;;;;;4.88;0.60;;;23.30;99.90;;;;;;5033787;28;20496;-70
2023/08/23 09:18:52;;;;;;;;;;;23.30;99.90;;;;;;5034290;28;20393;-70
2023/08/23 09:21:24;;;;;;;9.98;1.08;;;23.40;99.90;;;;;;5032446;28;19905;-70
2023/08/23 09:23:50;;;;;;;5.47;1.48;;;23.40;99.90;;;;;;5034380;28;20500;-70
2023/08/23 09:26:16;;;;;;;3.50;1.15;;;23.30;99.90;;;;;;5033645;28;20025;-70
2023/08/23 09:28:41;;;;;;;3.53;1.17;;;23.50;99.90;;;;;;5033531;28;20442;-70
2023/08/23 09:31:10;;;;;;;4.15;1.02;;;23.70;99.90;;;;;;5033663;28;20100;-70
2023/08/23 09:33:37;;;;;;;;;;;23.80;99.90;;;;;;5034402;28;20076;-70
2023/08/23 09:36:03;;;;;;;4.88;1.85;;;23.90;99.90;;;;;;5033415;28;19905;-71
2023/08/23 09:38:28;;;;;;;5.50;1.80;;;23.90;99.90;;;;;;5033705;28;20053;-70
2023/08/23 09:40:55;;;;;;;4.15;1.75;;;24.00;99.90;;;;;;5033452;28;20025;-70
2023/08/23 09:43:22;;;;;;;4.03;1.85;;;24.00;99.90;;;;;;5033361;28;20428;-71
2023/08/23 09:45:48;;;;;;;4.55;1.73;;;23.90;99.90;;;;;;5033558;28;20403;-70
2023/08/23 09:48:17;;;;;;;7.22;1.98;;;23.90;99.90;;;;;;5033826;28;20021;-70
2023/08/23 09:50:42;;;;;;;;;;;24.10;99.90;;;;;;5033707;28;20048;-70
2023/08/23 09:53:39;;;;;;;5.05;1.67;;;24.20;99.90;;;;;;5033344;28;19909;-70
2023/08/23 09:56:05;;;;;;;3.58;1.23;;;24.30;99.90;;;;;;5032247;28;20034;-70
2023/08/23 09:58:34;;;;;;;5.45;1.63;;;24.30;99.90;;;;;;5033247;28;20025;-70
2023/08/23 10:01:00;;;;;;;7.35;1.15;;;24.30;99.90;;;;;;5033165;28;20025;-70
2023/08/23 10:03:26;;;;;;;2.75;1.58;;;24.30;99.90;;;;;;5031897;28;20025;-71
2023/08/23 10:05:53;;;;;;;7.15;1.20;;;24.30;99.90;;;;;;5033088;28;20029;-70
2023/08/23 10:08:18;;;;;;;4.35;1.17;;;24.30;99.90;;;;;;5033047;28;20481;-70
2023/08/23 10:10:49;;;;;;;5.75;1.58;;;24.30;99.90;;;;;;5031783;28;20017;-70
2023/08/23 10:13:16;;;;;;;5.30;1.30;;;24.40;99.90;;;;;;5031824;28;20025;-70
2023/08/23 10:15:41;;;;;;;4.65;1.45;;;24.50;99.90;;;;;;5033082;28;20028;-70
2023/08/23 10:18:10;;;;;;;5.38;2.28;;;24.60;99.90;;;;;;5033187;28;20033;-70
2023/08/23 10:20:37;;;;;;;3.90;1.45;;;24.70;99.90;;;;;;5032099;28;20026;-71
2023/08/23 10:23:13;;;;;;;4.68;1.42;;;24.70;99.90;;;;;;5032927;28;20057;-70
2023/08/23 10:25:40;;;;;;;3.13;1.27;;;24.90;99.90;;;;;;5032717;28;20078;-71
2023/08/23 10:28:07;;;;;;;4.63;1.13;;;24.90;99.90;;;;;;5033448;28;20397;-71
2023/08/23 10:30:33;;;;;;;5.95;1.38;;;25.00;99.90;;;;;;5032831;28;20014;-70
2023/08/23 10:33:09;;;;;;;5.03;1.30;;;25.10;99.90;;;;;;5032954;28;20025;-71
2023/08/23 10:35:37;;;;;;;4.05;0.77;;;25.40;99.90;;;;;;5032716;28;20013;-70
2023/08/23 10:38:05;;;;;;;2.93;1.47;;;25.80;99.90;;;;;;5031551;28;20017;-71
2023/08/23 10:40:31;;;;;;;4.97;1.10;;;26.10;99.90;;;;;;5032907;28;20604;-71
2023/08/23 10:42:58;;;;;;;3.50;1.45;;;26.30;99.90;;;;;;5032755;28;20330;-70
2023/08/23 10:45:24;;;;;;;3.55;1.42;;;26.50;99.90;;;;;;5032704;28;20420;-70
2023/08/23 10:47:51;;;;;;;5.63;1.17;;;26.70;99.90;;;;;;5034653;28;20504;-70
2023/08/23 10:50:18;;;;;;;4.30;1.40;;;26.80;99.90;;;;;;5036523;28;20021;-70
2023/08/23 10:52:43;;;;;;;4.18;1.40;;;26.90;99.90;;;;;;5036561;28;20060;-70
2023/08/23 10:55:09;;;;;;;3.17;0.70;;;26.60;99.90;;;;;;5036418;28;20045;-70
2023/08/23 10:57:35;;;;;;;5.20;1.10;;;26.30;99.90;;;;;;5036622;28;20032;-70
2023/08/23 11:00:02;;;;;;;3.72;1.52;;;26.00;99.90;;;;;;5036306;28;20107;-70
2023/08/23 11:02:29;;;;;;;2.42;0.73;;;26.00;99.90;;;;;;5036398;28;20079;-70
2023/08/23 11:04:59;;;;;;;2.13;0.50;;;26.20;99.90;;;;;;5036291;28;20029;-70
2023/08/23 11:07:26;;;;;;;2.42;0.80;;;26.60;99.90;;;;;;5036197;28;20117;-70
2023/08/23 11:09:55;;;;;;;2.60;0.50;;;27.00;99.90;;;;;;5034624;28;20025;-70
2023/08/23 11:12:21;;;;;;;3.25;0.32;;;27.00;99.90;;;;;;5034893;28;20030;-71
2023/08/23 11:14:46;;;;;;;1.08;0.52;;;26.70;99.90;;;;;;5034569;28;20112;-72
2023/08/23 11:17:12;;;;;;;5.45;0.82;;;26.20;99.90;;;;;;5036200;28;20032;-71
2023/08/23 11:19:38;;;;;;;4.72;0.65;;;25.90;99.90;;;;;;5036143;28;20029;-70
2023/08/23 11:22:06;;;;;;;2.00;0.73;;;25.50;99.90;;;;;;5036551;28;20021;-70
2023/08/23 11:24:32;;;;;;;1.65;0.22;;;25.40;99.90;;;;;;5036038;28;20025;-70
2023/08/23 11:26:58;;;;;;;2.67;0.13;;;25.70;99.90;;;;;;5034577;28;20021;-70
2023/08/23 11:29:23;;;;;;;4.15;0.28;;;26.10;99.90;;;;;;5035644;28;20473;-70
2023/08/23 11:31:54;;;;;;;2.20;0.30;;;26.30;99.90;;;;;;5035804;28;20021;-70
2023/08/23 11:34:20;;;;;;;1.33;0.00;;;26.50;99.90;;;;;;5035838;28;20152;-70
2023/08/23 11:36:46;;;;;;;2.42;0.10;;;26.80;99.90;;;;;;5035678;28;20025;-70
2023/08/23 11:39:13;;;;;;;2.40;0.10;;;26.80;99.90;;;;;;5035615;28;20110;-70
2023/08/23 11:41:40;;;;;;;2.22;0.10;;;26.90;99.90;;;;;;5035581;28;20083;-71
2023/08/23 11:44:09;;;;;;;3.53;0.30;;;26.70;99.90;;;;;;5036231;28;20095;-70
2023/08/23 11:46:39;;;;;;;2.35;0.10;;;26.40;99.90;;;;;;5035404;28;20033;-71
2023/08/23 11:49:06;;;;;;;1.92;0.10;;;26.30;99.90;;;;;;5035970;28;20021;-70
2023/08/23 11:51:58;;;;;;;4.60;0.32;;;26.50;99.90;;;;;;5036016;28;20029;-70
2023/08/23 11:54:23;;;;;;;1.48;0.20;;;26.50;99.90;;;;;;5033569;28;20523;-70
2023/08/23 11:56:49;;;;;;;0.43;0.00;;;26.70;99.90;;;;;;5035050;28;20049;-70
2023/08/23 11:59:14;;;;;;;1.02;0.30;;;27.00;99.90;;;;;;5035420;28;20048;-71
2023/08/23 12:01:44;;;;;;;2.17;0.08;;;27.20;99.90;;;;;;5035848;28;20033;-71
2023/08/23 12:04:10;;;;;;;1.50;0.00;;;27.00;99.40;;;;;;5035142;28;20048;-71
2023/08/23 12:06:36;;;;;;;1.90;0.20;;;26.60;99.90;;;;;;5035784;28;20029;-70
2023/08/23 12:09:03;;;;;;;0.88;0.10;;;26.30;99.90;;;;;;5034993;28;20022;-70
2023/08/23 12:11:30;;;;;;;1.92;0.32;;;26.60;99.90;;;;;;5035074;28;20029;-70
2023/08/23 12:13:55;;;;;;;1.90;0.20;;;27.00;99.90;;;;;;5033876;28;20113;-70
2023/08/23 12:16:21;;;;;;;1.83;0.00;;;27.30;99.40;;;;;;5035541;28;20108;-70
2023/08/23 12:18:48;;;;;;;1.52;0.00;;;27.70;99.90;;;;;;5035108;28;20504;-71
2023/08/23 12:21:17;;;;;;;2.40;0.40;;;28.20;99.90;;;;;;5033749;28;20047;-71
2023/08/23 12:23:43;;;;;;;0.57;0.00;;;28.80;99.50;;;;;;5034949;28;20032;-71
2023/08/23 12:26:08;;;;;;;2.20;0.00;;;29.30;95.80;;;;;;5034908;28;20397;-70
2023/08/23 12:28:35;;;;;;;4.30;0.75;;;29.20;95.70;;;;;;5033539;28;20068;-70
2023/08/23 12:31:01;;;;;;;4.38;0.47;;;28.90;94.70;;;;;;5035393;28;20438;-70
2023/08/23 12:33:26;;;;;;;3.95;0.32;;;28.50;95.40;;;;;;5034673;28;20097;-70
2023/08/23 12:35:52;;;;;;;0.55;0.17;;;28.10;95.80;;;;;;5034861;28;20021;-70
2023/08/23 12:38:17;;;;;;;2.10;0.10;;;27.70;95.90;;;;;;5034569;28;20104;-70
2023/08/23 12:40:43;;;;;;;0.55;0.15;;;27.30;94.90;;;;;;5034673;28;20091;-70
2023/08/23 12:43:08;;;;;;;1.10;0.10;;;27.00;97.20;;;;;;5034551;28;20500;-70
2023/08/23 12:45:34;;;;;;;1.48;0.10;;;26.60;96.00;;;;;;5034462;28;20013;-70